Time,TemperatureF,DewpointF,PressureIn,WindDirection,WindDirectionDegrees,WindSpeedMPH,WindSpeedGustMPH,Humidity,HourlyPrecipIn,Conditions,Clouds,dailyrainin,SoftwareType,DateUTC
2016-07-28 00:08:00,77.0,50.0,-100.00,North,0,7.0,-999.0,38,-99.99,,,-99.99,,2016-07-28 07:08:00,
2016-07-28 00:34:00,74.0,48.0,-100.00,North,-9999,0.0,7.0,39,-99.99,,,-99.99,,2016-07-28 07:34:00,
2016-07-28 00:45:00,72.0,47.0,-100.00,SW,220,1.0,5.0,42,-99.99,,,-99.99,,2016-07-28 07:45:00,
2016-07-28 00:53:00,71.0,48.0,-100.00,ESE,120,1.0,4.0,44,-99.99,,,-99.99,,2016-07-28 07:53:00,
2016-07-28 01:04:00,71.0,48.0,-100.00,ESE,120,1.0,4.0,44,-99.99,,,-99.99,,2016-07-28 08:04:00,
2016-07-28 01:13:00,69.0,47.0,-100.00,SE,130,1.0,3.0,46,-99.99,,,-99.99,,2016-07-28 08:13:00,
2016-07-28 01:43:00,66.0,47.0,-100.00,East,95,3.0,4.0,51,-99.99,,,-99.99,,2016-07-28 08:43:00,
2016-07-28 01:53:00,66.0,48.0,-100.00,East,95,1.0,2.0,53,-99.99,,,-99.99,,2016-07-28 08:53:00,
2016-07-28 02:04:00,66.0,48.0,-100.00,East,95,1.0,2.0,53,-99.99,,,-99.99,,2016-07-28 09:04:00,
2016-07-28 02:13:00,65.0,48.0,-100.00,SSE,155,1.0,2.0,54,-99.99,,,-99.99,,2016-07-28 09:13:00,
2016-07-28 02:40:00,64.0,48.0,-100.00,NE,55,2.0,-999.0,56,-99.99,,,-99.99,,2016-07-28 09:40:00,
2016-07-28 02:50:00,64.0,48.0,-100.00,North,0,2.0,-999.0,57,-99.99,,,-99.99,,2016-07-28 09:50:00,
2016-07-28 03:12:00,65.0,49.0,-100.00,East,85,2.0,-999.0,56,-99.99,,,-99.99,,2016-07-28 10:12:00,
2016-07-28 03:20:00,64.0,49.0,-100.00,East,80,3.0,-999.0,58,-99.99,,,-99.99,,2016-07-28 10:20:00,
2016-07-28 03:40:00,63.0,49.0,-100.00,East,90,2.0,-999.0,59,-99.99,,,-99.99,,2016-07-28 10:40:00,
2016-07-28 03:50:00,63.0,49.0,-100.00,East,90,-999.9,-999.0,60,-99.99,,,-99.99,,2016-07-28 10:50:00,
2016-07-28 04:11:00,62.0,49.0,-100.00,East,85,-999.9,-999.0,61,-99.99,,,-99.99,,2016-07-28 11:11:00,
2016-07-28 04:21:00,63.0,49.0,-100.00,East,95,2.0,-999.0,61,-99.99,,,-99.99,,2016-07-28 11:21:00,
2016-07-28 04:41:00,63.0,49.0,-100.00,East,95,1.0,-999.0,60,-99.99,,,-99.99,,2016-07-28 11:41:00,
2016-07-28 04:51:00,63.0,49.0,-100.00,East,90,2.0,-999.0,62,-99.99,,,-99.99,,2016-07-28 11:51:00,
2016-07-28 05:07:00,63.0,49.0,-100.00,East,90,2.0,-999.0,62,-99.99,,,-99.99,,2016-07-28 12:07:00,
2016-07-28 05:13:00,62.0,49.0,-100.00,East,90,2.0,4.0,63,-99.99,,,-99.99,,2016-07-28 12:13:00,
2016-07-28 05:34:00,62.0,50.0,-100.00,East,85,2.0,4.0,64,-99.99,,,-99.99,,2016-07-28 12:34:00,
2016-07-28 05:50:00,62.0,50.0,-100.00,ESE,105,1.0,4.0,64,-99.99,,,-99.99,,2016-07-28 12:50:00,
2016-07-28 06:04:00,61.0,50.0,-100.00,East,85,2.0,3.0,66,-99.99,,,-99.99,,2016-07-28 13:04:00,
2016-07-28 06:13:00,61.0,50.0,-100.00,East,90,3.0,4.0,66,-99.99,,,-99.99,,2016-07-28 13:13:00,
2016-07-28 06:39:00,61.0,50.0,-100.00,East,80,2.0,4.0,66,-99.99,,,-99.99,,2016-07-28 13:39:00,
2016-07-28 06:53:00,61.0,50.0,-100.00,ENE,65,1.0,4.0,68,-99.99,,,-99.99,,2016-07-28 13:53:00,
2016-07-28 07:03:00,61.0,50.0,-100.00,ENE,65,1.0,4.0,68,-99.99,,,-99.99,,2016-07-28 14:03:00,
2016-07-28 07:12:00,61.0,51.0,-100.00,North,-9999,0.0,3.0,69,-99.99,,,-99.99,,2016-07-28 14:12:00,
2016-07-28 07:34:00,61.0,51.0,-100.00,East,100,1.0,3.0,69,-99.99,,,-99.99,,2016-07-28 14:34:00,
2016-07-28 07:53:00,62.0,53.0,-100.00,ENE,75,1.0,2.0,71,-99.99,,,-99.99,,2016-07-28 14:53:00,
2016-07-28 08:03:00,62.0,53.0,-100.00,ENE,75,1.0,2.0,71,-99.99,,,-99.99,,2016-07-28 15:03:00,
2016-07-28 08:13:00,64.0,54.0,-100.00,East,95,1.0,4.0,70,-99.99,,,-99.99,,2016-07-28 15:13:00,
2016-07-28 08:40:00,66.0,54.0,-100.00,East,85,-999.9,-999.0,64,-99.99,,,-99.99,,2016-07-28 15:40:00,
2016-07-28 08:50:00,69.0,54.0,-100.00,East,90,-999.9,-999.0,59,-99.99,,,-99.99,,2016-07-28 15:50:00,
2016-07-28 09:10:00,73.0,56.0,-100.00,ENE,75,1.0,-999.0,55,-99.99,,,-99.99,,2016-07-28 16:10:00,